sensor_id;sensor_type;location;lat;lon;timestamp;pressure;altitude;pressure_sealevel;temperature;humidity
77723;BME280;67811;42.656;23.394;2023-08-12T00:00:09;95614.69;;;17.69;61.96
77723;BME280;67811;42.656;23.394;2023-08-12T00:02:35;95611.63;;;17.65;62.16
77723;BME280;67811;42.656;23.394;2023-08-12T00:05:00;95618.63;;;17.66;61.70
77723;BME280;67811;42.656;23.394;2023-08-12T00:07:25;95613.03;;;17.68;62.05
77723;BME280;67811;42.656;23.394;2023-08-12T00:09:50;95606.31;;;17.58;61.97
77723;BME280;67811;42.656;23.394;2023-08-12T00:12:16;95612.28;;;17.60;62.13
77723;BME280;67811;42.656;23.394;2023-08-12T00:14:41;95607.16;;;17.52;62.22
77723;BME280;67811;42.656;23.394;2023-08-12T00:17:06;95604.06;;;17.55;62.15
77723;BME280;67811;42.656;23.394;2023-08-12T00:19:31;95610.50;;;17.48;62.22
77723;BME280;67811;42.656;23.394;2023-08-12T00:21:57;95602.66;;;17.46;62.23
77723;BME280;67811;42.656;23.394;2023-08-12T00:24:22;95604.91;;;17.49;62.14
77723;BME280;67811;42.656;23.394;2023-08-12T00:26:47;95603.28;;;17.48;62.19
77723;BME280;67811;42.656;23.394;2023-08-12T00:29:13;95598.34;;;17.45;61.93
77723;BME280;67811;42.656;23.394;2023-08-12T00:31:38;95599.59;;;17.43;61.85
77723;BME280;67811;42.656;23.394;2023-08-12T00:34:03;95602.47;;;17.41;62.23
77723;BME280;67811;42.656;23.394;2023-08-12T00:36:29;95599.97;;;17.46;62.02
77723;BME280;67811;42.656;23.394;2023-08-12T00:38:54;95601.25;;;17.44;61.75
77723;BME280;67811;42.656;23.394;2023-08-12T00:41:19;95601.84;;;17.46;61.68
77723;BME280;67811;42.656;23.394;2023-08-12T00:43:44;95595.88;;;17.44;61.31
77723;BME280;67811;42.656;23.394;2023-08-12T00:46:10;95606.78;;;17.49;60.89
77723;BME280;67811;42.656;23.394;2023-08-12T00:48:36;95601.09;;;17.32;61.90
77723;BME280;67811;42.656;23.394;2023-08-12T00:51:01;95597.38;;;17.33;62.07
77723;BME280;67811;42.656;23.394;2023-08-12T00:53:27;95606.59;;;17.44;61.63
77723;BME280;67811;42.656;23.394;2023-08-12T00:55:52;95596.69;;;17.44;61.71
77723;BME280;67811;42.656;23.394;2023-08-12T00:58:18;95600.59;;;17.48;61.51
77723;BME280;67811;42.656;23.394;2023-08-12T01:00:43;95599.16;;;17.46;61.55
77723;BME280;67811;42.656;23.394;2023-08-12T01:03:08;95590.94;;;17.41;61.74
77723;BME280;67811;42.656;23.394;2023-08-12T01:05:34;95593.34;;;17.55;61.21
77723;BME280;67811;42.656;23.394;2023-08-12T01:07:59;95588.78;;;17.56;61.73
77723;BME280;67811;42.656;23.394;2023-08-12T01:10:30;95593.28;;;17.62;61.25
77723;BME280;67811;42.656;23.394;2023-08-12T01:13:06;95592.47;;;17.61;60.91
77723;BME280;67811;42.656;23.394;2023-08-12T01:15:35;95593.28;;;17.62;61.15
77723;BME280;67811;42.656;23.394;2023-08-12T01:18:01;95588.56;;;17.64;61.41
77723;BME280;67811;42.656;23.394;2023-08-12T01:20:27;95590.84;;;17.60;61.28
77723;BME280;67811;42.656;23.394;2023-08-12T01:23:18;95586.72;;;17.58;60.78
77723;BME280;67811;42.656;23.394;2023-08-12T01:25:42;95581.41;;;17.51;61.60
77723;BME280;67811;42.656;23.394;2023-08-12T01:28:08;95589.56;;;17.63;61.55
77723;BME280;67811;42.656;23.394;2023-08-12T01:30:58;95581.22;;;17.46;61.87
77723;BME280;67811;42.656;23.394;2023-08-12T01:36:02;95569.00;;;17.25;63.01
77723;BME280;67811;42.656;23.394;2023-08-12T01:38:31;95584.22;;;17.31;62.75
77723;BME280;67811;42.656;23.394;2023-08-12T01:40:57;95580.34;;;17.21;63.12
77723;BME280;67811;42.656;23.394;2023-08-12T01:43:24;95586.09;;;17.24;62.94
77723;BME280;67811;42.656;23.394;2023-08-12T01:45:50;95581.22;;;17.08;63.45
77723;BME280;67811;42.656;23.394;2023-08-12T01:48:15;95591.69;;;17.16;63.71
77723;BME280;67811;42.656;23.394;2023-08-12T01:50:40;95583.56;;;16.98;63.79
77723;BME280;67811;42.656;23.394;2023-08-12T01:53:06;95586.22;;;16.98;64.12
77723;BME280;67811;42.656;23.394;2023-08-12T01:55:31;95585.22;;;17.37;67.89
77723;BME280;67811;42.656;23.394;2023-08-12T01:57:56;95576.91;;;19.73;59.47
77723;BME280;67811;42.656;23.394;2023-08-12T02:00:21;95575.59;;;20.88;54.90
77723;BME280;67811;42.656;23.394;2023-08-12T02:02:47;95576.13;;;21.54;52.18
77723;BME280;67811;42.656;23.394;2023-08-12T02:05:13;95577.25;;;22.03;50.70
77723;BME280;67811;42.656;23.394;2023-08-12T02:07:38;95583.16;;;22.34;49.26
77723;BME280;67811;42.656;23.394;2023-08-12T02:10:04;95583.75;;;22.53;48.51
77723;BME280;67811;42.656;23.394;2023-08-12T02:12:29;95587.22;;;22.70;47.91
77723;BME280;67811;42.656;23.394;2023-08-12T02:14:54;95578.50;;;22.85;46.93
77723;BME280;67811;42.656;23.394;2023-08-12T02:17:19;95580.81;;;22.93;46.60
77723;BME280;67811;42.656;23.394;2023-08-12T02:19:45;95577.03;;;22.94;46.87
77723;BME280;67811;42.656;23.394;2023-08-12T02:22:10;95580.31;;;22.96;46.76
77723;BME280;67811;42.656;23.394;2023-08-12T02:24:35;95580.31;;;22.96;46.26
77723;BME280;67811;42.656;23.394;2023-08-12T02:27:01;95587.47;;;22.69;47.03
77723;BME280;67811;42.656;23.394;2023-08-12T02:29:26;95587.38;;;21.96;48.25
77723;BME280;67811;42.656;23.394;2023-08-12T02:31:51;95586.06;;;21.53;48.71
77723;BME280;67811;42.656;23.394;2023-08-12T02:34:17;95591.19;;;21.38;49.62
77723;BME280;67811;42.656;23.394;2023-08-12T02:36:42;95593.78;;;21.21;49.18
77723;BME280;67811;42.656;23.394;2023-08-12T02:39:07;95589.53;;;21.25;50.45
77723;BME280;67811;42.656;23.394;2023-08-12T02:41:32;95584.81;;;21.73;49.32
77723;BME280;67811;42.656;23.394;2023-08-12T02:43:58;95592.00;;;21.67;48.21
77723;BME280;67811;42.656;23.394;2023-08-12T02:46:23;95597.44;;;21.15;49.92
77723;BME280;67811;42.656;23.394;2023-08-12T02:48:48;95594.34;;;21.23;49.67
77723;BME280;67811;42.656;23.394;2023-08-12T02:51:13;95600.75;;;21.46;49.11
77723;BME280;67811;42.656;23.394;2023-08-12T02:53:39;95600.19;;;21.44;49.08
77723;BME280;67811;42.656;23.394;2023-08-12T02:56:04;95601.25;;;21.19;49.01
77723;BME280;67811;42.656;23.394;2023-08-12T02:58:29;95606.88;;;19.89;51.93
77723;BME280;67811;42.656;23.394;2023-08-12T03:00:55;95614.81;;;18.37;56.74
77723;BME280;67811;42.656;23.394;2023-08-12T03:03:20;95616.22;;;17.13;60.99
77723;BME280;67811;42.656;23.394;2023-08-12T03:05:47;95613.72;;;16.33;64.09
77723;BME280;67811;42.656;23.394;2023-08-12T03:08:12;95611.44;;;15.71;66.98
77723;BME280;67811;42.656;23.394;2023-08-12T03:10:38;95615.63;;;15.25;69.30
77723;BME280;67811;42.656;23.394;2023-08-12T03:13:03;95623.13;;;14.95;70.29
77723;BME280;67811;42.656;23.394;2023-08-12T03:15:28;95633.41;;;14.64;71.95
77723;BME280;67811;42.656;23.394;2023-08-12T03:17:55;95622.28;;;14.54;72.91
77723;BME280;67811;42.656;23.394;2023-08-12T03:20:21;95621.66;;;14.93;72.17
77723;BME280;67811;42.656;23.394;2023-08-12T03:22:46;95619.41;;;14.90;70.91
77723;BME280;67811;42.656;23.394;2023-08-12T03:25:12;95621.53;;;15.14;70.79
77723;BME280;67811;42.656;23.394;2023-08-12T03:27:37;95618.69;;;16.10;66.65
77723;BME280;67811;42.656;23.394;2023-08-12T03:30:02;95618.50;;;17.03;64.16
77723;BME280;67811;42.656;23.394;2023-08-12T03:32:28;95612.50;;;17.52;61.81
77723;BME280;67811;42.656;23.394;2023-08-12T03:34:53;95615.53;;;17.31;61.54
77723;BME280;67811;42.656;23.394;2023-08-12T03:37:18;95625.41;;;16.66;63.19
77723;BME280;67811;42.656;23.394;2023-08-12T03:39:44;95620.50;;;16.10;65.36
77723;BME280;67811;42.656;23.394;2023-08-12T03:42:09;95624.22;;;16.48;64.74
77723;BME280;67811;42.656;23.394;2023-08-12T03:44:34;95622.91;;;16.84;64.06
77723;BME280;67811;42.656;23.394;2023-08-12T03:47:00;95622.13;;;17.73;62.00
77723;BME280;67811;42.656;23.394;2023-08-12T03:49:25;95620.72;;;17.57;59.83
77723;BME280;67811;42.656;23.394;2023-08-12T03:51:50;95627.09;;;16.27;64.10
77723;BME280;67811;42.656;23.394;2023-08-12T03:54:16;95631.16;;;15.76;66.51
77723;BME280;67811;42.656;23.394;2023-08-12T03:56:41;95632.75;;;15.51;68.38
77723;BME280;67811;42.656;23.394;2023-08-12T03:59:06;95636.13;;;16.46;66.04
77723;BME280;67811;42.656;23.394;2023-08-12T04:01:31;95624.28;;;17.51;61.88
77723;BME280;67811;42.656;23.394;2023-08-12T04:03:57;95631.63;;;18.76;58.05
77723;BME280;67811;42.656;23.394;2023-08-12T04:06:22;95623.06;;;18.60;56.95
77723;BME280;67811;42.656;23.394;2023-08-12T04:08:47;95617.91;;;17.46;59.79
77723;BME280;67811;42.656;23.394;2023-08-12T04:11:12;95622.97;;;16.38;63.63
77723;BME280;67811;42.656;23.394;2023-08-12T04:13:38;95630.00;;;15.99;65.48
77723;BME280;67811;42.656;23.394;2023-08-12T04:16:03;95629.13;;;16.51;65.45
77723;BME280;67811;42.656;23.394;2023-08-12T04:18:28;95630.66;;;17.50;62.89
77723;BME280;67811;42.656;23.394;2023-08-12T04:20:54;95627.59;;;17.85;59.22
77723;BME280;67811;42.656;23.394;2023-08-12T04:23:19;95630.16;;;17.28;61.53
77723;BME280;67811;42.656;23.394;2023-08-12T04:25:48;95626.38;;;18.12;61.86
77723;BME280;67811;42.656;23.394;2023-08-12T04:28:14;95634.41;;;19.24;57.61
77723;BME280;67811;42.656;23.394;2023-08-12T04:30:44;95624.94;;;20.23;54.34
77723;BME280;67811;42.656;23.394;2023-08-12T04:33:10;95626.75;;;20.88;52.49
77723;BME280;67811;42.656;23.394;2023-08-12T04:35:35;95626.47;;;21.13;51.58
77723;BME280;67811;42.656;23.394;2023-08-12T04:38:01;95624.91;;;21.41;50.91
77723;BME280;67811;42.656;23.394;2023-08-12T04:40:26;95632.16;;;21.80;49.67
77723;BME280;67811;42.656;23.394;2023-08-12T04:42:52;95628.50;;;22.15;48.81
77723;BME280;67811;42.656;23.394;2023-08-12T04:45:17;95625.28;;;22.35;48.16
77723;BME280;67811;42.656;23.394;2023-08-12T04:47:42;95635.19;;;22.63;47.53
77723;BME280;67811;42.656;23.394;2023-08-12T04:50:08;95624.44;;;22.85;47.03
77723;BME280;67811;42.656;23.394;2023-08-12T04:52:33;95623.94;;;23.05;46.60
77723;BME280;67811;42.656;23.394;2023-08-12T04:54:58;95625.28;;;23.02;46.67
77723;BME280;67811;42.656;23.394;2023-08-12T04:57:24;95628.09;;;23.34;46.11
77723;BME280;67811;42.656;23.394;2023-08-12T04:59:49;95625.66;;;23.55;45.42
77723;BME280;67811;42.656;23.394;2023-08-12T05:02:14;95638.38;;;23.54;45.55
77723;BME280;67811;42.656;23.394;2023-08-12T05:04:39;95633.22;;;23.75;45.07
77723;BME280;67811;42.656;23.394;2023-08-12T05:07:05;95632.25;;;23.86;44.50
77723;BME280;67811;42.656;23.394;2023-08-12T05:09:30;95636.88;;;23.42;45.39
77723;BME280;67811;42.656;23.394;2023-08-12T05:11:55;95631.53;;;23.69;45.24
77723;BME280;67811;42.656;23.394;2023-08-12T05:14:21;95637.47;;;23.92;44.86
77723;BME280;67811;42.656;23.394;2023-08-12T05:16:46;95627.06;;;24.11;44.50
77723;BME280;67811;42.656;23.394;2023-08-12T05:19:11;95624.13;;;23.86;44.66
77723;BME280;67811;42.656;23.394;2023-08-12T05:21:36;95629.91;;;23.95;44.80
77723;BME280;67811;42.656;23.394;2023-08-12T05:24:02;95632.88;;;23.93;44.88
77723;BME280;67811;42.656;23.394;2023-08-12T05:26:28;95641.47;;;23.85;45.04
77723;BME280;67811;42.656;23.394;2023-08-12T05:28:53;95641.09;;;23.76;45.22
77723;BME280;67811;42.656;23.394;2023-08-12T05:31:18;95632.72;;;24.05;46.31
77723;BME280;67811;42.656;23.394;2023-08-12T05:33:43;95637.34;;;24.09;44.68
77723;BME280;67811;42.656;23.394;2023-08-12T05:36:09;95639.09;;;24.48;43.82
77723;BME280;67811;42.656;23.394;2023-08-12T05:38:34;95638.44;;;24.08;43.42
77723;BME280;67811;42.656;23.394;2023-08-12T05:40:59;95638.00;;;24.22;43.44
77723;BME280;67811;42.656;23.394;2023-08-12T05:43:25;95641.03;;;23.98;45.00
77723;BME280;67811;42.656;23.394;2023-08-12T05:45:50;95649.09;;;23.93;42.47
77723;BME280;67811;42.656;23.394;2023-08-12T05:48:15;95644.91;;;23.80;42.73
77723;BME280;67811;42.656;23.394;2023-08-12T05:50:40;95641.19;;;23.86;44.92
77723;BME280;67811;42.656;23.394;2023-08-12T05:53:06;95638.31;;;23.71;48.77
77723;BME280;67811;42.656;23.394;2023-08-12T05:55:33;95630.31;;;24.08;49.12
77723;BME280;67811;42.656;23.394;2023-08-12T05:57:58;95637.97;;;24.43;45.12
77723;BME280;67811;42.656;23.394;2023-08-12T06:00:24;95631.47;;;24.44;45.92
77723;BME280;67811;42.656;23.394;2023-08-12T06:02:49;95628.69;;;24.71;42.72
77723;BME280;67811;42.656;23.394;2023-08-12T06:05:14;95624.53;;;24.96;42.48
77723;BME280;67811;42.656;23.394;2023-08-12T06:07:39;95625.78;;;25.20;42.54
77723;BME280;67811;42.656;23.394;2023-08-12T06:10:05;95623.75;;;25.01;40.69
77723;BME280;67811;42.656;23.394;2023-08-12T06:12:30;95617.22;;;24.96;42.27
77723;BME280;67811;42.656;23.394;2023-08-12T06:14:56;95620.22;;;25.05;40.58
77723;BME280;67811;42.656;23.394;2023-08-12T06:17:21;95619.25;;;25.16;38.85
77723;BME280;67811;42.656;23.394;2023-08-12T06:19:46;95619.78;;;24.76;39.22
77723;BME280;67811;42.656;23.394;2023-08-12T06:22:12;95613.69;;;24.96;40.63
77723;BME280;67811;42.656;23.394;2023-08-12T06:24:37;95614.25;;;24.61;40.41
77723;BME280;67811;42.656;23.394;2023-08-12T06:27:02;95613.84;;;24.79;40.21
77723;BME280;67811;42.656;23.394;2023-08-12T06:29:27;95620.28;;;25.10;40.05
77723;BME280;67811;42.656;23.394;2023-08-12T06:31:54;95617.41;;;25.32;38.57
77723;BME280;67811;42.656;23.394;2023-08-12T06:34:19;95606.66;;;25.53;39.36
77723;BME280;67811;42.656;23.394;2023-08-12T06:36:44;95609.56;;;25.36;40.60
77723;BME280;67811;42.656;23.394;2023-08-12T06:39:10;95606.66;;;25.53;39.13
77723;BME280;67811;42.656;23.394;2023-08-12T06:41:35;95596.56;;;25.43;38.88
77723;BME280;67811;42.656;23.394;2023-08-12T06:44:00;95602.78;;;25.28;38.25
77723;BME280;67811;42.656;23.394;2023-08-12T06:46:26;95594.28;;;25.77;39.09
77723;BME280;67811;42.656;23.394;2023-08-12T06:48:51;95592.44;;;26.23;38.40
77723;BME280;67811;42.656;23.394;2023-08-12T06:51:16;95595.44;;;26.68;36.85
77723;BME280;67811;42.656;23.394;2023-08-12T06:53:42;95595.69;;;26.87;36.48
77723;BME280;67811;42.656;23.394;2023-08-12T06:56:07;95590.81;;;26.73;37.74
77723;BME280;67811;42.656;23.394;2023-08-12T06:58:32;95596.78;;;26.75;36.72
77723;BME280;67811;42.656;23.394;2023-08-12T07:00:57;95590.53;;;26.70;37.40
77723;BME280;67811;42.656;23.394;2023-08-12T07:03:23;95593.53;;;26.53;36.32
77723;BME280;67811;42.656;23.394;2023-08-12T07:05:48;95593.78;;;26.11;36.98
77723;BME280;67811;42.656;23.394;2023-08-12T07:08:13;95593.53;;;26.48;36.45
77723;BME280;67811;42.656;23.394;2023-08-12T07:10:40;95591.06;;;26.00;38.24
77723;BME280;67811;42.656;23.394;2023-08-12T07:13:05;95590.00;;;26.47;36.81
77723;BME280;67811;42.656;23.394;2023-08-12T07:15:31;95587.75;;;27.00;36.21
77723;BME280;67811;42.656;23.394;2023-08-12T07:17:56;95589.63;;;27.25;36.33
77723;BME280;67811;42.656;23.394;2023-08-12T07:20:21;95590.09;;;27.43;34.92
77723;BME280;67811;42.656;23.394;2023-08-12T07:22:46;95589.81;;;27.49;34.64
77723;BME280;67811;42.656;23.394;2023-08-12T07:25:12;95588.66;;;27.61;35.35
77723;BME280;67811;42.656;23.394;2023-08-12T07:27:37;95581.59;;;28.09;33.89
77723;BME280;67811;42.656;23.394;2023-08-12T07:30:03;95585.88;;;27.81;33.87
77723;BME280;67811;42.656;23.394;2023-08-12T07:32:28;95583.44;;;28.19;34.13
77723;BME280;67811;42.656;23.394;2023-08-12T07:34:53;95582.47;;;28.39;32.58
77723;BME280;67811;42.656;23.394;2023-08-12T07:37:19;95584.16;;;28.29;32.82
77723;BME280;67811;42.656;23.394;2023-08-12T07:39:44;95578.66;;;28.74;32.53
77723;BME280;67811;42.656;23.394;2023-08-12T07:42:09;95583.63;;;29.20;31.23
77723;BME280;67811;42.656;23.394;2023-08-12T07:44:35;95580.59;;;29.69;30.21
77723;BME280;67811;42.656;23.394;2023-08-12T07:47:00;95582.81;;;29.19;31.64
77723;BME280;67811;42.656;23.394;2023-08-12T07:49:25;95575.91;;;29.03;31.54
77723;BME280;67811;42.656;23.394;2023-08-12T07:51:50;95573.41;;;29.30;30.50
77723;BME280;67811;42.656;23.394;2023-08-12T07:54:16;95566.19;;;29.63;30.86
77723;BME280;67811;42.656;23.394;2023-08-12T07:56:41;95553.56;;;30.05;30.30
77723;BME280;67811;42.656;23.394;2023-08-12T07:59:06;95566.53;;;30.18;29.98
77723;BME280;67811;42.656;23.394;2023-08-12T08:01:32;95559.13;;;30.19;29.57
77723;BME280;67811;42.656;23.394;2023-08-12T08:03:57;95557.22;;;30.01;29.15
77723;BME280;67811;42.656;23.394;2023-08-12T08:06:23;95551.13;;;29.66;29.70
77723;BME280;67811;42.656;23.394;2023-08-12T08:08:48;95558.00;;;29.82;29.67
77723;BME280;67811;42.656;23.394;2023-08-12T08:11:13;95557.97;;;29.21;30.16
77723;BME280;67811;42.656;23.394;2023-08-12T08:13:39;95550.69;;;29.59;29.54
77723;BME280;67811;42.656;23.394;2023-08-12T08:16:04;95560.53;;;29.98;29.10
77723;BME280;67811;42.656;23.394;2023-08-12T08:18:29;95553.06;;;29.84;28.73
77723;BME280;67811;42.656;23.394;2023-08-12T08:20:54;95553.81;;;30.28;28.21
77723;BME280;67811;42.656;23.394;2023-08-12T08:23:20;95557.09;;;30.43;28.36
77723;BME280;67811;42.656;23.394;2023-08-12T08:25:45;95553.09;;;30.68;27.69
77723;BME280;67811;42.656;23.394;2023-08-12T08:28:10;95558.59;;;30.68;27.41
77723;BME280;67811;42.656;23.394;2023-08-12T08:30:36;95559.72;;;30.35;27.30
77723;BME280;67811;42.656;23.394;2023-08-12T08:33:01;95551.91;;;30.42;26.52
77723;BME280;67811;42.656;23.394;2023-08-12T08:35:27;95547.31;;;29.86;27.61
77723;BME280;67811;42.656;23.394;2023-08-12T08:37:53;95539.69;;;29.64;27.20
77723;BME280;67811;42.656;23.394;2023-08-12T08:40:18;95543.47;;;29.68;28.46
77723;BME280;67811;42.656;23.394;2023-08-12T08:42:45;95536.34;;;30.05;28.13
77723;BME280;67811;42.656;23.394;2023-08-12T08:45:13;95544.41;;;30.66;27.88
77723;BME280;67811;42.656;23.394;2023-08-12T08:47:39;95543.03;;;30.83;27.23
77723;BME280;67811;42.656;23.394;2023-08-12T08:50:06;95537.56;;;30.96;26.34
77723;BME280;67811;42.656;23.394;2023-08-12T08:52:33;95538.72;;;30.63;26.76
77723;BME280;67811;42.656;23.394;2023-08-12T08:55:00;95535.72;;;30.13;26.46
77723;BME280;67811;42.656;23.394;2023-08-12T08:57:26;95525.16;;;29.87;26.85
77723;BME280;67811;42.656;23.394;2023-08-12T08:59:51;95531.28;;;29.98;27.41
77723;BME280;67811;42.656;23.394;2023-08-12T09:02:17;95528.28;;;30.32;27.90
77723;BME280;67811;42.656;23.394;2023-08-12T09:04:44;95538.47;;;30.78;26.64
77723;BME280;67811;42.656;23.394;2023-08-12T09:07:11;95517.63;;;30.50;26.77
77723;BME280;67811;42.656;23.394;2023-08-12T09:09:40;95524.78;;;30.78;27.02
77723;BME280;67811;42.656;23.394;2023-08-12T09:12:08;95517.00;;;30.99;27.50
77723;BME280;67811;42.656;23.394;2023-08-12T09:14:35;95523.81;;;31.15;26.79
77723;BME280;67811;42.656;23.394;2023-08-12T09:17:00;95511.63;;;31.35;26.07
77723;BME280;67811;42.656;23.394;2023-08-12T09:19:26;95520.03;;;31.53;25.84
77723;BME280;67811;42.656;23.394;2023-08-12T09:21:53;95504.06;;;31.68;26.02
77723;BME280;67811;42.656;23.394;2023-08-12T09:24:26;95511.84;;;31.75;25.22
77723;BME280;67811;42.656;23.394;2023-08-12T09:26:53;95515.09;;;31.27;26.21
77723;BME280;67811;42.656;23.394;2023-08-12T09:29:23;95499.91;;;32.07;25.55
77723;BME280;67811;42.656;23.394;2023-08-12T09:31:48;95497.16;;;32.30;24.56
77723;BME280;67811;42.656;23.394;2023-08-12T09:34:14;95489.38;;;32.45;25.02
77723;BME280;67811;42.656;23.394;2023-08-12T09:36:40;95484.38;;;32.25;24.41
77723;BME280;67811;42.656;23.394;2023-08-12T09:39:08;95477.88;;;31.26;25.26
77723;BME280;67811;42.656;23.394;2023-08-12T09:41:33;95486.66;;;31.37;25.45
77723;BME280;67811;42.656;23.394;2023-08-12T09:44:01;95481.69;;;31.89;24.87
77723;BME280;67811;42.656;23.394;2023-08-12T09:46:28;95481.81;;;32.06;24.41
77723;BME280;67811;42.656;23.394;2023-08-12T09:48:53;95482.47;;;32.48;24.76
77723;BME280;67811;42.656;23.394;2023-08-12T09:51:19;95484.66;;;32.37;24.24
77723;BME280;67811;42.656;23.394;2023-08-12T09:53:47;95482.28;;;32.84;23.85
77723;BME280;67811;42.656;23.394;2023-08-12T09:56:13;95485.50;;;33.17;22.74
77723;BME280;67811;42.656;23.394;2023-08-12T09:58:42;95482.63;;;32.29;23.04
77723;BME280;67811;42.656;23.394;2023-08-12T10:01:10;95467.09;;;32.47;23.70
77723;BME280;67811;42.656;23.394;2023-08-12T10:03:36;95463.47;;;32.91;22.27
77723;BME280;67811;42.656;23.394;2023-08-12T10:06:02;95468.50;;;32.98;23.26
77723;BME280;67811;42.656;23.394;2023-08-12T10:08:28;95468.31;;;33.51;23.10
77723;BME280;67811;42.656;23.394;2023-08-12T10:10:54;95464.84;;;33.28;22.95
77723;BME280;67811;42.656;23.394;2023-08-12T10:13:21;95463.97;;;33.02;22.55
77723;BME280;67811;42.656;23.394;2023-08-12T10:15:46;95461.06;;;33.55;23.08
77723;BME280;67811;42.656;23.394;2023-08-12T10:18:13;95460.75;;;33.66;21.89
77723;BME280;67811;42.656;23.394;2023-08-12T10:20:39;95457.84;;;33.53;22.14
77723;BME280;67811;42.656;23.394;2023-08-12T10:23:05;95454.53;;;33.25;22.43
77723;BME280;67811;42.656;23.394;2023-08-12T10:25:33;95447.06;;;33.17;22.23
77723;BME280;67811;42.656;23.394;2023-08-12T10:27:58;95451.63;;;32.82;22.74
77723;BME280;67811;42.656;23.394;2023-08-12T10:30:23;95444.16;;;33.14;22.29
77723;BME280;67811;42.656;23.394;2023-08-12T10:32:49;95441.25;;;33.10;22.69
77723;BME280;67811;42.656;23.394;2023-08-12T10:35:15;95445.88;;;33.67;22.53
77723;BME280;67811;42.656;23.394;2023-08-12T10:37:40;95441.34;;;34.05;21.73
77723;BME280;67811;42.656;23.394;2023-08-12T10:40:09;95442.44;;;34.22;22.27
77723;BME280;67811;42.656;23.394;2023-08-12T10:42:48;95433.44;;;32.55;21.96
77723;BME280;67811;42.656;23.394;2023-08-12T10:45:16;95437.50;;;33.06;22.55
77723;BME280;67811;42.656;23.394;2023-08-12T10:47:43;95425.81;;;33.49;21.83
77723;BME280;67811;42.656;23.394;2023-08-12T10:50:19;95426.38;;;33.11;22.15
77723;BME280;67811;42.656;23.394;2023-08-12T10:52:45;95430.63;;;33.26;21.75
77723;BME280;67811;42.656;23.394;2023-08-12T10:55:18;95423.19;;;33.26;21.01
77723;BME280;67811;42.656;23.394;2023-08-12T10:57:43;95416.38;;;33.24;21.00
77723;BME280;67811;42.656;23.394;2023-08-12T11:00:17;95413.97;;;33.22;22.15
77723;BME280;67811;42.656;23.394;2023-08-12T11:02:45;95406.91;;;33.65;22.01
77723;BME280;67811;42.656;23.394;2023-08-12T11:05:12;95404.50;;;33.98;21.26
77723;BME280;67811;42.656;23.394;2023-08-12T11:07:47;95408.00;;;33.38;22.62
77723;BME280;67811;42.656;23.394;2023-08-12T11:10:22;95408.00;;;33.38;22.38
77723;BME280;67811;42.656;23.394;2023-08-12T11:15:42;95395.94;;;32.42;22.88
77723;BME280;67811;42.656;23.394;2023-08-12T11:20:34;95400.22;;;32.65;22.20
77723;BME280;67811;42.656;23.394;2023-08-12T11:23:00;95385.53;;;31.99;23.24
77723;BME280;67811;42.656;23.394;2023-08-12T11:25:27;95386.13;;;32.89;21.95
77723;BME280;67811;42.656;23.394;2023-08-12T11:27:53;95398.75;;;33.16;21.14
77723;BME280;67811;42.656;23.394;2023-08-12T11:30:19;95389.44;;;32.77;22.09
77723;BME280;67811;42.656;23.394;2023-08-12T11:32:47;95385.03;;;33.16;20.81
77723;BME280;67811;42.656;23.394;2023-08-12T11:35:14;95381.53;;;33.50;20.83
77723;BME280;67811;42.656;23.394;2023-08-12T11:37:41;95391.25;;;33.74;20.33
77723;BME280;67811;42.656;23.394;2023-08-12T11:40:09;95393.47;;;33.89;18.93
77723;BME280;67811;42.656;23.394;2023-08-12T11:42:35;95386.50;;;33.83;19.17
77723;BME280;67811;42.656;23.394;2023-08-12T11:45:01;95377.44;;;34.08;18.70
77723;BME280;67811;42.656;23.394;2023-08-12T11:47:26;95380.53;;;33.98;18.29
77723;BME280;67811;42.656;23.394;2023-08-12T11:49:52;95376.19;;;33.45;18.75
77723;BME280;67811;42.656;23.394;2023-08-12T11:52:18;95382.81;;;33.96;18.60
77723;BME280;67811;42.656;23.394;2023-08-12T11:54:43;95380.09;;;34.43;18.50
77723;BME280;67811;42.656;23.394;2023-08-12T11:57:08;95378.50;;;34.80;17.76
77723;BME280;67811;42.656;23.394;2023-08-12T11:59:34;95385.16;;;34.79;17.85
77723;BME280;67811;42.656;23.394;2023-08-12T12:02:02;95381.53;;;34.96;17.84
77723;BME280;67811;42.656;23.394;2023-08-12T12:04:30;95380.09;;;34.52;17.53
77723;BME280;67811;42.656;23.394;2023-08-12T12:06:56;95371.97;;;33.30;18.80
77723;BME280;67811;42.656;23.394;2023-08-12T12:09:21;95360.13;;;32.95;19.18
77723;BME280;67811;42.656;23.394;2023-08-12T12:11:52;95371.97;;;32.34;20.40
77723;BME280;67811;42.656;23.394;2023-08-12T12:14:17;95359.97;;;32.92;19.91
77723;BME280;67811;42.656;23.394;2023-08-12T12:16:44;95360.88;;;32.78;19.57
77723;BME280;67811;42.656;23.394;2023-08-12T12:19:23;95362.94;;;32.02;21.23
77723;BME280;67811;42.656;23.394;2023-08-12T12:21:50;95359.41;;;32.64;21.83
77723;BME280;67811;42.656;23.394;2023-08-12T12:24:16;95358.22;;;33.04;20.80
77723;BME280;67811;42.656;23.394;2023-08-12T12:26:41;95355.50;;;33.74;20.50
77723;BME280;67811;42.656;23.394;2023-08-12T12:29:07;95355.78;;;33.98;19.99
77723;BME280;67811;42.656;23.394;2023-08-12T12:31:34;95350.66;;;33.45;20.48
77723;BME280;67811;42.656;23.394;2023-08-12T12:34:01;95353.06;;;33.20;21.18
77723;BME280;67811;42.656;23.394;2023-08-12T12:36:26;95347.88;;;33.10;22.52
77723;BME280;67811;42.656;23.394;2023-08-12T12:38:52;95350.78;;;32.48;22.88
77723;BME280;67811;42.656;23.394;2023-08-12T12:41:17;95341.28;;;32.54;22.99
77723;BME280;67811;42.656;23.394;2023-08-12T12:43:42;95347.84;;;31.82;23.86
77723;BME280;67811;42.656;23.394;2023-08-12T12:46:08;95340.72;;;31.59;23.80
77723;BME280;67811;42.656;23.394;2023-08-12T12:48:33;95333.28;;;31.51;24.12
77723;BME280;67811;42.656;23.394;2023-08-12T12:50:59;95343.66;;;31.40;23.71